Colombo Express — DIHC — position and weather

sailwx.info

Track history (hours):
 
Tides and Currents Weather Stations Pressure Air Temp Water Temp Dewpoint Dewpoint Depression Visibility Wind Speed Wind Dir Waves Ship Positions

Colombo Express

Last reported at 2019-Aug-15 19:05 UTC. Time now 2019-Aug-25 08:57 UTC.
Position N 31°06' E 122°21'.
Warning: this ship's position is 9 days out of date.

Length 335.5 m; beam 42.8 m; draft 14.6 m.

Type: Ship (hazmat cat A). MMSI: 211433000.

Date/timePositionNaut miles runAvg speedWind from/ knotsBaromVisibWave heightAir tempDewpointWater temp
2019-Aug-15 19:05N 31°06' E 122°21'214.8
2019-Aug-15 18:57N 31°06' E 122°19'614.4
2019-Aug-15 18:30N 31°10' E 122°13'814.8
2019-Aug-15 17:59N 31°14' E 122°05'714.6
2019-Aug-15 17:30N 31°15' E 121°57'714.4
2019-Aug-15 17:00N 31°17' E 121°49'810.7
2019-Aug-15 16:17N 31°20' E 121°41'6 0.1
2019-Aug-13 16:03N 31°23' E 121°35'0 0.0
2019-Aug-13 15:39N 31°23' E 121°35'0 0.1
2019-Aug-13 15:29N 31°23' E 121°35'9 3.6
2019-Aug-13 12:54N 31°19' E 121°45'712.6
2019-Aug-13 12:20N 31°16' E 121°53'413.5
2019-Aug-13 12:00N 31°15' E 121°58'714.4
2019-Aug-13 11:29N 31°14' E 122°06'6 9.6
2019-Aug-13 10:52N 31°10' E 122°12'412.5
2019-Aug-13 10:30N 31°07' E 122°16'612.5
2019-Aug-13 10:00N 31°06' E 122°23'7 7.3
2019-Aug-13 09:02N 31°09' E 122°31'6 1.1
2019-Aug-13 04:02N 31°12' E 122°37'0 0.1
2019-Aug-13 03:57N 31°12' E 122°37'0 0.0
2019-Aug-13 02:50N 31°12' E 122°37'0 0.1
2019-Aug-13 01:53N 31°12' E 122°37'0 0.0
2019-Aug-13 01:24N 31°12' E 122°37'0 0.0
2019-Aug-13 00:54N 31°12' E 122°37'0 0.0
2019-Aug-13 00:17N 31°12' E 122°37'0 0.0
2019-Aug-12 23:59N 31°12' E 122°37'0 0.0
2019-Aug-12 23:26N 31°12' E 122°37'0 0.0
2019-Aug-12 20:08N 31°12' E 122°37'0 0.0
2019-Aug-12 19:59N 31°12' E 122°37'0 0.0
2019-Aug-12 17:47N 31°11' E 122°37'0 0.0
2019-Aug-12 17:29N 31°12' E 122°37'0 0.0
2019-Aug-12 16:57N 31°12' E 122°37'0 0.1
2019-Aug-12 16:14N 31°12' E 122°37'0 0.0
2019-Aug-12 15:35N 31°12' E 122°37'0 0.0
2019-Aug-12 15:02N 31°12' E 122°37'0 0.3
2019-Aug-12 14:53N 31°12' E 122°37'0 0.0
2019-Aug-12 14:29N 31°12' E 122°37'0 0.0
2019-Aug-12 13:59N 31°12' E 122°37'0 0.0
2019-Aug-12 13:29N 31°12' E 122°37'0 0.0
2019-Aug-12 12:47N 31°12' E 122°37'0 0.0
2019-Aug-12 12:29N 31°12' E 122°37'0 0.0
2019-Aug-12 09:29N 31°11' E 122°37'0 0.0
2019-Aug-12 08:59N 31°11' E 122°37'0 0.1
2019-Aug-12 08:27N 31°11' E 122°37'0 0.0
2019-Aug-12 07:59N 31°11' E 122°37'0 0.0
2019-Aug-12 07:16N 31°11' E 122°37'3 0.4
2019-Aug-11 21:51N 31°09' E 122°40'  
2019-Aug-08 13:00N 34°56' E 129°16'610.9
2019-Aug-08 12:30N 34°58' E 129°22'7110.8
2019-Aug-08 06:00N 35°48' E 130°24'   200 / 131008.210.8 28.525.325.0
Track history (hours):
 
Tides and Currents Weather Stations Pressure Air Temp Water Temp Dewpoint Dewpoint Depression Visibility Wind Speed Wind Dir Waves Ship Positions

Colombo Express

Last reported at 2019-Aug-15 19:05 UTC. Time now 2019-Aug-25 08:57 UTC.
Position N 31°06' E 122°21'.
Warning: this ship's position is 9 days out of date.

Length 335.5 m; beam 42.8 m; draft 14.6 m.

Type: Ship (hazmat cat A). MMSI: 211433000.

Date/timePositionNaut miles runAvg speedWind from/ knotsBaromVisibWave heightAir tempDewpointWater temp
2019-Aug-15 19:05N 31°06' E 122°21'214.8
2019-Aug-15 18:57N 31°06' E 122°19'614.4
2019-Aug-15 18:30N 31°10' E 122°13'814.8
2019-Aug-15 17:59N 31°14' E 122°05'714.6
2019-Aug-15 17:30N 31°15' E 121°57'714.4
2019-Aug-15 17:00N 31°17' E 121°49'810.7
2019-Aug-15 16:17N 31°20' E 121°41'6 0.1
2019-Aug-13 16:03N 31°23' E 121°35'0 0.0
2019-Aug-13 15:39N 31°23' E 121°35'0 0.1
2019-Aug-13 15:29N 31°23' E 121°35'9 3.6
2019-Aug-13 12:54N 31°19' E 121°45'712.6
2019-Aug-13 12:20N 31°16' E 121°53'413.5
2019-Aug-13 12:00N 31°15' E 121°58'714.4
2019-Aug-13 11:29N 31°14' E 122°06'6 9.6
2019-Aug-13 10:52N 31°10' E 122°12'412.5
2019-Aug-13 10:30N 31°07' E 122°16'612.5
2019-Aug-13 10:00N 31°06' E 122°23'7 7.3
2019-Aug-13 09:02N 31°09' E 122°31'6 1.1
2019-Aug-13 04:02N 31°12' E 122°37'0 0.1
2019-Aug-13 03:57N 31°12' E 122°37'0 0.0
2019-Aug-13 02:50N 31°12' E 122°37'0 0.1
2019-Aug-13 01:53N 31°12' E 122°37'0 0.0
2019-Aug-13 01:24N 31°12' E 122°37'0 0.0
2019-Aug-13 00:54N 31°12' E 122°37'0 0.0
2019-Aug-13 00:17N 31°12' E 122°37'0 0.0
2019-Aug-12 23:59N 31°12' E 122°37'0 0.0
2019-Aug-12 23:26N 31°12' E 122°37'0 0.0
2019-Aug-12 20:08N 31°12' E 122°37'0 0.0
2019-Aug-12 19:59N 31°12' E 122°37'0 0.0
2019-Aug-12 17:47N 31°11' E 122°37'0 0.0
2019-Aug-12 17:29N 31°12' E 122°37'0 0.0
2019-Aug-12 16:57N 31°12' E 122°37'0 0.1
2019-Aug-12 16:14N 31°12' E 122°37'0 0.0
2019-Aug-12 15:35N 31°12' E 122°37'0 0.0
2019-Aug-12 15:02N 31°12' E 122°37'0 0.3
2019-Aug-12 14:53N 31°12' E 122°37'0 0.0
2019-Aug-12 14:29N 31°12' E 122°37'0 0.0
2019-Aug-12 13:59N 31°12' E 122°37'0 0.0
2019-Aug-12 13:29N 31°12' E 122°37'0 0.0
2019-Aug-12 12:47N 31°12' E 122°37'0 0.0
2019-Aug-12 12:29N 31°12' E 122°37'0 0.0
2019-Aug-12 09:29N 31°11' E 122°37'0 0.0
2019-Aug-12 08:59N 31°11' E 122°37'0 0.1
2019-Aug-12 08:27N 31°11' E 122°37'0 0.0
2019-Aug-12 07:59N 31°11' E 122°37'0 0.0
2019-Aug-12 07:16N 31°11' E 122°37'3 0.4
2019-Aug-11 21:51N 31°09' E 122°40'  
2019-Aug-08 13:00N 34°56' E 129°16'610.9
2019-Aug-08 12:30N 34°58' E 129°22'7110.8
2019-Aug-08 06:00N 35°48' E 130°24'   200 / 131008.210.8 28.525.325.0

Dump ship's entire track history